createdAt,value
2023-01-30T00:01:47.249Z,2.30
2023-01-30T00:04:17.426Z,1.90
2023-01-30T00:06:45.736Z,2.60
2023-01-30T00:09:15.662Z,2.60
2023-01-30T00:11:43.586Z,4.70
2023-01-30T00:14:11.514Z,2.40
2023-01-30T00:16:39.465Z,2.40
2023-01-30T00:19:07.431Z,2.30
2023-01-30T00:21:36.674Z,2.30
2023-01-30T00:24:05.246Z,2.50
2023-01-30T00:26:33.276Z,2.80
2023-01-30T00:29:01.431Z,2.40
2023-01-30T00:31:29.338Z,2.70
2023-01-30T00:33:57.323Z,2.20
2023-01-30T00:36:25.226Z,3.50
2023-01-30T00:38:54.611Z,2.90
2023-01-30T00:41:22.750Z,2.70
2023-01-30T00:44:08.108Z,4.50
2023-01-30T00:46:52.638Z,5.00
2023-01-30T00:49:20.934Z,2.60
2023-01-30T00:51:49.178Z,2.90
2023-01-30T00:54:18.425Z,2.80
2023-01-30T00:56:46.383Z,2.90
2023-01-30T00:59:14.354Z,2.50
2023-01-30T01:01:42.536Z,3.10
2023-01-30T01:04:11.794Z,2.80
2023-01-30T01:06:39.784Z,2.70
2023-01-30T01:09:08.254Z,2.80
2023-01-30T01:11:37.681Z,2.70
2023-01-30T01:14:06.555Z,2.70
2023-01-30T01:16:35.328Z,2.40
2023-01-30T01:19:03.601Z,2.70
2023-01-30T01:21:31.493Z,2.70
2023-01-30T01:24:01.348Z,2.70
2023-01-30T01:26:29.581Z,2.60
2023-01-30T01:28:59.652Z,2.90
2023-01-30T01:31:27.997Z,2.70
2023-01-30T01:33:56.009Z,2.80
2023-01-30T01:36:51.786Z,2.80
2023-01-30T01:39:12.194Z,2.80
2023-01-30T01:41:39.062Z,2.80
2023-01-30T01:44:10.888Z,2.90
2023-01-30T01:46:43.664Z,2.90
2023-01-30T01:49:17.399Z,4.10
2023-01-30T01:51:50.979Z,2.70
2023-01-30T01:54:24.494Z,2.60
2023-01-30T01:56:52.862Z,2.50
2023-01-30T01:59:26.516Z,4.50
2023-01-30T02:01:59.205Z,3.00
2023-01-30T02:04:42.577Z,4.10
2023-01-30T02:07:11.180Z,3.40
2023-01-30T02:09:39.565Z,2.90
2023-01-30T02:12:07.654Z,4.10
2023-01-30T02:14:38.431Z,4.00
2023-01-30T02:17:06.536Z,3.10
2023-01-30T02:19:41.974Z,3.20
2023-01-30T02:23:00.843Z,4.60
2023-01-30T02:25:56.615Z,3.20
2023-01-30T02:28:46.562Z,3.20
2023-01-30T02:31:33.824Z,3.20
2023-01-30T02:34:17.416Z,3.20
2023-01-30T02:36:55.467Z,2.90
2023-01-30T02:39:33.471Z,4.90
2023-01-30T02:42:06.701Z,3.00
2023-01-30T02:44:43.161Z,4.60
2023-01-30T02:47:16.407Z,3.40
2023-01-30T02:49:49.584Z,5.00
2023-01-30T02:52:18.584Z,4.10
2023-01-30T02:54:46.561Z,2.80
2023-01-30T02:57:21.544Z,4.80
2023-01-30T02:59:52.616Z,5.40
2023-01-30T03:02:51.931Z,3.70
2023-01-30T03:05:38.235Z,3.40
2023-01-30T03:08:19.032Z,3.30
2023-01-30T03:10:58.486Z,3.30
2023-01-30T03:13:34.591Z,4.60
2023-01-30T03:16:08.322Z,3.40
2023-01-30T03:18:37.588Z,3.50
2023-01-30T03:21:07.010Z,3.80
2023-01-30T03:23:35.299Z,3.90
2023-01-30T03:26:06.583Z,3.30
2023-01-30T03:28:36.186Z,3.60
2023-01-30T03:31:04.135Z,3.40
2023-01-30T03:33:32.056Z,5.40
2023-01-30T03:36:01.355Z,4.30
2023-01-30T03:38:29.342Z,2.90
2023-01-30T03:40:57.403Z,3.80
2023-01-30T03:43:25.311Z,3.60
2023-01-30T03:45:53.256Z,3.80
2023-01-30T03:48:21.197Z,3.00
2023-01-30T03:50:49.174Z,3.50
2023-01-30T03:53:18.435Z,5.00
2023-01-30T03:55:46.427Z,3.50
2023-01-30T03:58:14.356Z,3.80
2023-01-30T04:00:42.467Z,3.80
2023-01-30T04:03:10.468Z,3.50
2023-01-30T04:05:38.409Z,5.60
2023-01-30T04:08:06.630Z,5.20
2023-01-30T04:10:35.875Z,3.90
2023-01-30T04:13:03.741Z,4.30
2023-01-30T04:15:31.685Z,3.80
2023-01-30T04:17:59.645Z,3.70
2023-01-30T04:20:27.603Z,5.50
2023-01-30T04:22:56.221Z,4.10
2023-01-30T04:25:24.229Z,3.80
2023-01-30T04:27:53.540Z,3.60
2023-01-30T04:30:21.659Z,5.70
2023-01-30T04:32:49.692Z,4.30
2023-01-30T04:35:18.159Z,4.10
2023-01-30T04:37:46.345Z,4.10
2023-01-30T04:40:14.614Z,5.00
2023-01-30T04:42:42.557Z,5.40
2023-01-30T04:45:12.456Z,4.20
2023-01-30T04:47:40.340Z,4.00
2023-01-30T04:50:09.453Z,4.00
2023-01-30T04:52:39.573Z,4.30
2023-01-30T04:55:08.394Z,4.20
2023-01-30T04:57:39.131Z,4.30
2023-01-30T05:01:00.539Z,4.80
2023-01-30T05:03:29.857Z,4.30
2023-01-30T05:05:57.747Z,4.30
2023-01-30T05:08:25.681Z,5.40
2023-01-30T05:10:53.568Z,5.30
2023-01-30T05:13:21.489Z,4.50
2023-01-30T05:15:49.352Z,4.50
2023-01-30T05:18:17.428Z,5.20
2023-01-30T05:20:46.653Z,6.10
2023-01-30T05:23:14.631Z,5.90
2023-01-30T05:25:42.526Z,5.90
2023-01-30T05:28:10.415Z,6.50
2023-01-30T05:30:38.376Z,6.10
2023-01-30T05:33:06.309Z,5.50
2023-01-30T05:35:34.207Z,5.80
2023-01-30T05:38:03.595Z,5.00
2023-01-30T05:40:31.522Z,5.30
2023-01-30T05:42:59.430Z,5.00
2023-01-30T05:45:27.325Z,5.80
2023-01-30T05:47:58.590Z,5.20
2023-01-30T05:50:29.177Z,7.50
2023-01-30T05:52:57.096Z,5.50
2023-01-30T05:55:26.460Z,5.50
2023-01-30T05:57:54.393Z,5.10
2023-01-30T06:00:23.216Z,5.10
2023-01-30T06:02:51.163Z,5.20
2023-01-30T06:05:19.496Z,5.90
2023-01-30T06:07:47.594Z,5.10
2023-01-30T06:10:15.581Z,5.20
2023-01-30T06:12:44.953Z,5.20
2023-01-30T06:15:13.554Z,6.40
2023-01-30T06:17:44.180Z,6.30
2023-01-30T06:20:13.205Z,7.00
2023-01-30T06:22:41.088Z,4.90
2023-01-30T06:25:10.111Z,6.20
2023-01-30T06:27:38.105Z,5.30
2023-01-30T06:30:08.723Z,5.50
2023-01-30T06:32:36.631Z,5.30
2023-01-30T06:35:05.116Z,5.40
2023-01-30T06:37:33.051Z,5.20
2023-01-30T06:40:01.002Z,6.70
2023-01-30T06:42:28.968Z,5.10
2023-01-30T06:44:56.887Z,5.70
2023-01-30T06:47:26.246Z,6.00
2023-01-30T06:49:54.206Z,5.70
2023-01-30T06:52:22.119Z,5.70
2023-01-30T06:54:50.051Z,5.30
2023-01-30T06:57:17.984Z,5.40
2023-01-30T06:59:45.884Z,6.20
2023-01-30T07:02:15.016Z,5.30
2023-01-30T07:04:44.281Z,5.20
2023-01-30T07:07:12.332Z,4.90
2023-01-30T07:09:40.276Z,5.50
2023-01-30T07:12:08.288Z,4.80
2023-01-30T07:14:36.206Z,4.90
2023-01-30T07:17:04.260Z,4.90
2023-01-30T07:19:32.285Z,5.30
2023-01-30T07:22:03.306Z,4.60
2023-01-30T07:24:31.292Z,4.60
2023-01-30T07:26:59.184Z,4.80
2023-01-30T07:29:27.205Z,5.10
2023-01-30T07:31:55.595Z,4.70
2023-01-30T07:34:23.673Z,6.00
2023-01-30T07:36:51.565Z,4.90
2023-01-30T07:39:20.946Z,6.70
2023-01-30T07:41:48.891Z,5.60
2023-01-30T07:44:16.886Z,5.30
2023-01-30T07:46:44.973Z,4.90
2023-01-30T07:49:12.896Z,4.80
2023-01-30T07:51:40.788Z,5.00
2023-01-30T07:54:08.690Z,6.10
2023-01-30T07:56:38.011Z,6.30
2023-01-30T07:59:06.476Z,5.10
2023-01-30T08:01:34.852Z,6.80
2023-01-30T08:04:02.804Z,5.70
2023-01-30T08:06:30.761Z,5.60
2023-01-30T08:08:58.668Z,5.90
2023-01-30T08:11:26.601Z,6.00
2023-01-30T08:13:55.860Z,5.30
2023-01-30T08:16:23.830Z,5.90
2023-01-30T08:18:51.830Z,5.80
2023-01-30T08:21:19.811Z,7.10
2023-01-30T08:23:47.743Z,5.70
2023-01-30T08:26:15.692Z,6.40
2023-01-30T08:28:43.801Z,5.40
2023-01-30T08:31:14.388Z,5.80
2023-01-30T08:33:42.520Z,5.10
2023-01-30T08:36:10.806Z,6.00
2023-01-30T08:38:38.840Z,5.50
2023-01-30T08:41:08.165Z,5.60
2023-01-30T08:43:36.186Z,5.70
2023-01-30T08:46:04.250Z,5.70
2023-01-30T08:48:47.461Z,5.70
2023-01-30T08:51:16.763Z,6.00
2023-01-30T08:53:44.691Z,5.80
2023-01-30T08:56:12.566Z,6.30
2023-01-30T08:58:43.661Z,6.30
2023-01-30T09:01:11.731Z,6.30
2023-01-30T09:03:40.995Z,6.10
2023-01-30T09:06:09.284Z,5.90
2023-01-30T09:08:37.193Z,6.00
2023-01-30T09:11:06.629Z,5.90
2023-01-30T09:13:36.211Z,6.20
2023-01-30T09:16:05.087Z,6.10
2023-01-30T09:18:32.956Z,6.00
2023-01-30T09:21:06.383Z,6.10
2023-01-30T09:23:34.577Z,6.20
2023-01-30T09:26:02.525Z,6.10
2023-01-30T09:28:30.413Z,6.10
2023-01-30T09:30:59.142Z,6.20
2023-01-30T09:33:27.107Z,6.20
2023-01-30T09:35:55.168Z,6.10
2023-01-30T09:38:24.491Z,6.20
2023-01-30T09:41:04.242Z,6.20
2023-01-30T09:43:43.776Z,8.30
2023-01-30T09:46:24.201Z,6.20
2023-01-30T09:49:02.617Z,6.30
2023-01-30T09:51:41.721Z,6.20
2023-01-30T09:54:24.301Z,6.20
2023-01-30T09:57:00.772Z,6.10
2023-01-30T09:59:35.586Z,6.20
2023-01-30T10:02:22.188Z,6.30
2023-01-30T10:05:01.424Z,6.20
2023-01-30T10:07:39.934Z,6.20
2023-01-30T10:10:18.796Z,6.40
2023-01-30T10:12:55.781Z,6.30
2023-01-30T10:15:33.082Z,6.30
2023-01-30T10:18:21.410Z,6.30
2023-01-30T10:20:58.735Z,6.30
2023-01-30T10:23:51.694Z,6.70
2023-01-30T10:26:24.754Z,6.30
2023-01-30T10:29:07.266Z,6.10
2023-01-30T10:31:43.303Z,6.30
2023-01-30T10:34:15.604Z,6.20
2023-01-30T10:36:49.973Z,6.60
2023-01-30T10:39:25.556Z,6.40
2023-01-30T10:41:59.425Z,6.50
2023-01-30T10:44:27.531Z,6.40
2023-01-30T10:47:25.231Z,6.50
2023-01-30T10:49:58.838Z,6.50
2023-01-30T10:52:39.144Z,7.30
2023-01-30T10:55:19.898Z,6.70
2023-01-30T10:57:59.300Z,6.50
2023-01-30T11:00:30.783Z,6.40
2023-01-30T11:03:19.075Z,6.30
2023-01-30T11:05:50.236Z,6.30
2023-01-30T11:08:25.006Z,6.70
2023-01-30T11:10:53.892Z,6.30
2023-01-30T11:13:27.121Z,6.90
2023-01-30T11:15:57.568Z,6.60
2023-01-30T11:19:18.128Z,6.90
2023-01-30T11:21:23.329Z,7.00
2023-01-30T11:23:51.948Z,6.80
2023-01-30T11:26:26.137Z,7.00
2023-01-30T11:28:58.954Z,7.00
2023-01-30T11:31:40.839Z,6.90
2023-01-30T11:34:16.482Z,7.10
2023-01-30T11:36:47.101Z,7.10
2023-01-30T11:39:24.099Z,7.10
2023-01-30T11:42:01.917Z,7.10
2023-01-30T11:44:33.742Z,7.20
2023-01-30T11:47:03.208Z,7.20
2023-01-30T11:49:48.271Z,7.00
2023-01-30T11:52:28.900Z,7.10
2023-01-30T11:55:05.299Z,6.90
2023-01-30T11:57:41.418Z,6.90
2023-01-30T12:00:18.407Z,6.90
2023-01-30T12:02:48.279Z,6.80
2023-01-30T12:05:25.874Z,6.90
2023-01-30T12:07:54.229Z,6.50
2023-01-30T12:10:31.755Z,6.20
2023-01-30T12:13:03.656Z,6.40
2023-01-30T12:15:35.097Z,6.30
2023-01-30T12:18:09.736Z,6.40
2023-01-30T12:20:49.411Z,6.60
2023-01-30T12:23:24.962Z,6.90
2023-01-30T12:25:58.783Z,6.80
2023-01-30T12:28:36.040Z,6.90
2023-01-30T12:31:11.816Z,6.90
2023-01-30T12:33:39.761Z,7.60
2023-01-30T12:36:17.892Z,7.00
2023-01-30T12:38:58.771Z,7.00
2023-01-30T12:41:49.319Z,8.20
2023-01-30T12:44:34.433Z,7.00
2023-01-30T12:47:22.099Z,7.30
2023-01-30T12:50:13.965Z,7.00
2023-01-30T12:53:14.279Z,7.00
2023-01-30T12:55:50.901Z,7.10
2023-01-30T12:58:23.785Z,7.10
2023-01-30T13:01:02.433Z,7.10
2023-01-30T13:03:38.737Z,7.20
2023-01-30T13:06:20.220Z,8.20
2023-01-30T13:09:04.502Z,8.90
2023-01-30T13:11:42.583Z,7.20
2023-01-30T13:14:19.695Z,7.60
2023-01-30T13:17:00.683Z,7.20
2023-01-30T13:19:41.063Z,7.20
2023-01-30T13:22:17.225Z,7.10
2023-01-30T13:24:53.433Z,7.10
2023-01-30T13:27:23.379Z,8.40
2023-01-30T13:29:53.586Z,7.00
2023-01-30T13:32:35.717Z,6.90
2023-01-30T13:35:14.727Z,6.90
2023-01-30T13:37:43.694Z,6.90
2023-01-30T13:40:18.999Z,6.90
2023-01-30T13:42:51.432Z,6.90
2023-01-30T13:45:23.389Z,7.30
2023-01-30T13:48:05.124Z,6.80
2023-01-30T13:50:50.864Z,6.70
2023-01-30T13:53:24.578Z,6.40
2023-01-30T13:55:58.715Z,6.60
2023-01-30T13:58:44.947Z,6.40
2023-01-30T14:01:14.217Z,6.20
2023-01-30T14:03:43.946Z,6.40
2023-01-30T14:06:33.746Z,6.70
2023-01-30T14:09:06.349Z,6.70
2023-01-30T14:11:42.411Z,8.40
2023-01-30T14:14:31.681Z,6.90
2023-01-30T14:17:10.846Z,6.90
2023-01-30T14:19:41.986Z,6.70
2023-01-30T14:22:35.042Z,6.80
2023-01-30T14:25:45.796Z,6.70
2023-01-30T14:28:50.886Z,6.90
2023-01-30T14:31:52.528Z,6.80
2023-01-30T14:34:39.704Z,6.80
2023-01-30T14:40:46.165Z,6.90
2023-01-30T14:43:37.530Z,6.80
2023-01-30T14:46:08.701Z,6.70
2023-01-30T14:48:44.460Z,7.00
2023-01-30T14:51:25.032Z,6.70
2023-01-30T14:53:56.426Z,6.80
2023-01-30T14:56:43.423Z,6.50
2023-01-30T14:59:23.029Z,6.50
2023-01-30T15:02:02.749Z,6.60
2023-01-30T15:04:34.021Z,6.50
2023-01-30T15:07:07.573Z,6.70
2023-01-30T15:09:36.526Z,6.70
2023-01-30T15:12:23.217Z,6.70
2023-01-30T15:15:00.032Z,6.40
2023-01-30T15:17:37.917Z,6.40
2023-01-30T15:20:28.117Z,6.60
2023-01-30T15:23:30.367Z,6.20
2023-01-30T15:26:14.744Z,6.50
2023-01-30T15:28:49.558Z,6.50
2023-01-30T15:31:19.456Z,7.00
2023-01-30T15:33:49.151Z,6.20
2023-01-30T15:36:24.853Z,8.20
2023-01-30T15:39:00.769Z,6.10
2023-01-30T15:41:31.165Z,6.10
2023-01-30T15:44:27.490Z,6.90
2023-01-30T15:47:04.192Z,6.60
2023-01-30T15:49:49.293Z,6.40
2023-01-30T15:52:19.738Z,5.80
2023-01-30T15:54:52.193Z,5.80
2023-01-30T15:57:25.566Z,5.70
2023-01-30T15:59:56.825Z,5.70
2023-01-30T16:02:30.323Z,5.70
2023-01-30T16:05:16.314Z,5.70
2023-01-30T16:07:46.096Z,5.80
2023-01-30T16:10:16.718Z,5.70
2023-01-30T16:12:44.888Z,5.80
2023-01-30T16:15:20.100Z,6.60
2023-01-30T16:17:55.312Z,5.80
2023-01-30T16:20:23.313Z,5.80
2023-01-30T16:22:51.362Z,5.90
2023-01-30T16:25:23.381Z,5.80
2023-01-30T16:27:53.580Z,6.20
2023-01-30T16:30:25.659Z,7.50
2023-01-30T16:32:55.213Z,5.80
2023-01-30T16:35:30.944Z,6.30
2023-01-30T16:38:00.672Z,5.90
2023-01-30T16:40:31.863Z,6.70
2023-01-30T16:43:01.383Z,5.90
2023-01-30T16:45:59.196Z,7.00
2023-01-30T16:48:34.454Z,6.70
2023-01-30T16:51:18.843Z,5.90
2023-01-30T16:53:54.669Z,5.80
2023-01-30T16:56:22.634Z,5.80
2023-01-30T16:58:53.497Z,6.30
2023-01-30T17:01:23.916Z,6.40
2023-01-30T17:04:01.363Z,5.80
2023-01-30T17:06:35.805Z,6.30
2023-01-30T17:09:05.405Z,5.80
2023-01-30T17:11:36.364Z,7.20
2023-01-30T17:14:17.045Z,7.10
2023-01-30T17:16:46.171Z,6.40
2023-01-30T17:19:15.899Z,7.80
2023-01-30T17:21:46.087Z,5.50
2023-01-30T17:24:17.025Z,5.40
2023-01-30T17:26:45.992Z,5.40
2023-01-30T17:29:23.600Z,5.30
2023-01-30T17:31:58.004Z,6.10
2023-01-30T17:34:28.884Z,5.30
2023-01-30T17:36:56.982Z,5.20
2023-01-30T17:39:26.744Z,6.10
2023-01-30T17:41:54.701Z,6.20
2023-01-30T17:44:22.647Z,5.20
2023-01-30T17:46:50.780Z,6.00
2023-01-30T17:49:20.935Z,5.10
2023-01-30T17:51:51.017Z,6.60
2023-01-30T17:54:20.407Z,5.10
2023-01-30T17:56:52.360Z,5.90
2023-01-30T17:59:21.390Z,6.00
2023-01-30T18:01:51.147Z,6.00
2023-01-30T18:04:20.125Z,5.50
2023-01-30T18:06:53.266Z,6.30
2023-01-30T18:09:22.673Z,5.40
2023-01-30T18:11:51.299Z,4.90
2023-01-30T18:14:19.479Z,5.70
2023-01-30T18:16:47.831Z,4.90
2023-01-30T18:19:17.718Z,4.90
2023-01-30T18:21:46.269Z,6.20
2023-01-30T18:24:15.573Z,6.10
2023-01-30T18:26:43.833Z,5.00
2023-01-30T18:29:12.431Z,5.00
2023-01-30T18:31:41.256Z,5.70
2023-01-30T18:34:11.065Z,5.00
2023-01-30T18:36:39.460Z,5.00
2023-01-30T18:39:07.605Z,6.20
2023-01-30T18:41:36.835Z,6.30
2023-01-30T18:44:06.606Z,5.70
2023-01-30T18:46:34.654Z,5.00
2023-01-30T18:49:02.599Z,4.90
2023-01-30T18:51:33.995Z,5.70
2023-01-30T18:54:02.478Z,5.90
2023-01-30T18:56:32.585Z,5.20
2023-01-30T18:59:04.492Z,4.90
2023-01-30T19:01:35.686Z,6.10
2023-01-30T19:04:05.761Z,6.00
2023-01-30T19:06:36.643Z,5.60
2023-01-30T19:09:05.360Z,5.30
2023-01-30T19:11:50.906Z,5.50
2023-01-30T19:14:20.422Z,6.00
2023-01-30T19:16:48.689Z,4.80
2023-01-30T19:19:16.801Z,5.70
2023-01-30T19:21:44.955Z,4.70
2023-01-30T19:24:14.966Z,5.00
2023-01-30T19:26:43.362Z,4.80
2023-01-30T19:29:11.563Z,2.70
2023-01-30T19:31:41.531Z,5.20
2023-01-30T19:34:11.442Z,5.40
2023-01-30T19:36:39.753Z,6.30
2023-01-30T19:39:07.904Z,6.30
2023-01-30T19:41:37.829Z,4.70
2023-01-30T19:44:07.361Z,4.70
2023-01-30T19:46:35.480Z,4.80
2023-01-30T19:49:05.821Z,4.80
2023-01-30T19:51:36.384Z,4.90
2023-01-30T19:54:06.816Z,4.90
2023-01-30T19:56:36.596Z,4.90
2023-01-30T19:59:04.998Z,4.90
2023-01-30T20:01:37.499Z,5.40
2023-01-30T20:04:06.928Z,6.20
2023-01-30T20:06:36.289Z,4.90
2023-01-30T20:09:06.712Z,5.60
2023-01-30T20:11:36.180Z,5.90
2023-01-30T20:14:06.471Z,6.30
2023-01-30T20:16:35.719Z,5.80
2023-01-30T20:19:07.015Z,4.90
2023-01-30T20:21:35.875Z,5.60
2023-01-30T20:24:04.802Z,6.10
2023-01-30T20:26:35.066Z,4.80
2023-01-30T20:29:04.174Z,5.50
2023-01-30T20:31:33.572Z,5.90
2023-01-30T20:34:03.329Z,4.60
2023-01-30T20:36:33.190Z,5.70
2023-01-30T20:39:04.111Z,5.20
2023-01-30T20:41:34.987Z,5.90
2023-01-30T20:44:03.461Z,4.60
2023-01-30T20:46:35.464Z,4.60
2023-01-30T20:49:03.380Z,4.60
2023-01-30T20:51:34.832Z,5.50
2023-01-30T20:54:05.400Z,5.60
2023-01-30T20:56:35.267Z,4.70
2023-01-30T20:59:04.784Z,4.70
2023-01-30T21:01:33.012Z,4.70
2023-01-30T21:04:05.275Z,5.60
2023-01-30T21:06:41.418Z,4.70
2023-01-30T21:09:13.778Z,6.00
2023-01-30T21:11:41.715Z,4.80
2023-01-30T21:14:09.647Z,4.90
2023-01-30T21:16:38.394Z,5.90
2023-01-30T21:19:08.399Z,6.20
2023-01-30T21:21:40.256Z,6.60
2023-01-30T21:24:12.109Z,4.90
2023-01-30T21:26:44.488Z,4.90
2023-01-30T21:29:13.221Z,4.90
2023-01-30T21:31:41.962Z,5.80
2023-01-30T21:34:11.078Z,4.90
2023-01-30T21:36:40.587Z,6.00
2023-01-30T21:39:27.588Z,5.70
2023-01-30T21:42:12.940Z,6.20
2023-01-30T21:44:41.318Z,5.70
2023-01-30T21:47:09.510Z,4.60
2023-01-30T21:49:37.769Z,4.40
2023-01-30T21:52:07.124Z,4.10
2023-01-30T21:54:34.992Z,5.10
2023-01-30T21:57:02.856Z,3.90
2023-01-30T21:59:31.838Z,3.90
2023-01-30T22:01:59.704Z,3.80
2023-01-30T22:04:27.623Z,3.80
2023-01-30T22:06:55.656Z,4.10
2023-01-30T22:09:24.861Z,3.70
2023-01-30T22:11:54.290Z,3.70
2023-01-30T22:14:22.165Z,3.70
2023-01-30T22:16:50.081Z,3.70
2023-01-30T22:19:18.032Z,4.80
2023-01-30T22:21:45.900Z,3.60
2023-01-30T22:24:13.826Z,5.10
2023-01-30T22:26:43.092Z,3.50
2023-01-30T22:29:11.289Z,3.50
2023-01-30T22:31:40.512Z,3.40
2023-01-30T22:34:08.914Z,3.30
2023-01-30T22:36:37.550Z,3.30
2023-01-30T22:39:06.785Z,3.30
2023-01-30T22:41:36.372Z,3.30
2023-01-30T22:44:08.824Z,3.30
2023-01-30T22:46:38.764Z,3.30
2023-01-30T22:49:08.323Z,3.30
2023-01-30T22:51:38.387Z,3.30
2023-01-30T22:54:11.660Z,3.40
2023-01-30T22:56:41.529Z,3.40
2023-01-30T22:59:11.284Z,3.40
2023-01-30T23:01:40.818Z,3.40
2023-01-30T23:04:12.004Z,3.40
2023-01-30T23:06:40.570Z,3.50
2023-01-30T23:09:10.930Z,3.50
2023-01-30T23:11:40.643Z,4.30
2023-01-30T23:14:11.799Z,3.60
2023-01-30T23:16:41.921Z,3.60
2023-01-30T23:19:11.130Z,3.70
2023-01-30T23:21:41.052Z,3.70
2023-01-30T23:24:11.294Z,3.80
2023-01-30T23:26:41.994Z,4.80
2023-01-30T23:29:14.431Z,3.80
2023-01-30T23:31:44.212Z,3.80
2023-01-30T23:34:15.366Z,3.80
2023-01-30T23:36:43.417Z,5.00
2023-01-30T23:39:11.968Z,3.80
2023-01-30T23:41:40.022Z,3.80
2023-01-30T23:44:08.221Z,3.80
2023-01-30T23:46:39.271Z,5.00
2023-01-30T23:49:09.023Z,3.80
2023-01-30T23:51:39.859Z,4.30
2023-01-30T23:54:08.351Z,3.80
2023-01-30T23:56:38.891Z,3.80
2023-01-30T23:59:07.069Z,4.40
